sensor_id;sensor_type;location;lat;lon;timestamp;temperature;humidity
18291;DHT22;9271;48.590;8.866;2023-09-07T00:01:11;17.80;99.90
18291;DHT22;9271;48.590;8.866;2023-09-07T00:03:38;17.80;99.90
18291;DHT22;9271;48.590;8.866;2023-09-07T00:06:07;17.70;99.90
18291;DHT22;9271;48.590;8.866;2023-09-07T00:08:34;17.60;99.90
18291;DHT22;9271;48.590;8.866;2023-09-07T00:11:04;17.60;99.90
18291;DHT22;9271;48.590;8.866;2023-09-07T00:13:31;17.50;99.90
18291;DHT22;9271;48.590;8.866;2023-09-07T00:15:59;17.50;99.90
18291;DHT22;9271;48.590;8.866;2023-09-07T00:18:26;17.50;99.90
18291;DHT22;9271;48.590;8.866;2023-09-07T00:20:53;17.50;99.90
18291;DHT22;9271;48.590;8.866;2023-09-07T00:23:21;17.50;99.90
18291;DHT22;9271;48.590;8.866;2023-09-07T00:25:48;17.50;99.90
18291;DHT22;9271;48.590;8.866;2023-09-07T00:28:15;17.50;99.90
18291;DHT22;9271;48.590;8.866;2023-09-07T00:30:42;17.60;99.90
18291;DHT22;9271;48.590;8.866;2023-09-07T00:33:08;17.60;99.90
18291;DHT22;9271;48.590;8.866;2023-09-07T00:35:36;17.50;99.90
18291;DHT22;9271;48.590;8.866;2023-09-07T00:38:03;17.50;99.90
18291;DHT22;9271;48.590;8.866;2023-09-07T00:40:31;17.50;99.90
18291;DHT22;9271;48.590;8.866;2023-09-07T00:42:58;17.50;99.90
18291;DHT22;9271;48.590;8.866;2023-09-07T00:45:25;17.40;99.90
18291;DHT22;9271;48.590;8.866;2023-09-07T00:47:52;17.40;99.90
18291;DHT22;9271;48.590;8.866;2023-09-07T00:50:19;17.30;99.90
18291;DHT22;9271;48.590;8.866;2023-09-07T00:52:47;17.30;99.90
18291;DHT22;9271;48.590;8.866;2023-09-07T00:55:14;17.30;99.90
18291;DHT22;9271;48.590;8.866;2023-09-07T00:57:43;17.20;99.90
18291;DHT22;9271;48.590;8.866;2023-09-07T01:00:10;17.30;99.90
18291;DHT22;9271;48.590;8.866;2023-09-07T01:02:37;17.30;99.90
18291;DHT22;9271;48.590;8.866;2023-09-07T01:05:05;17.20;99.90
18291;DHT22;9271;48.590;8.866;2023-09-07T01:07:35;17.20;99.90
18291;DHT22;9271;48.590;8.866;2023-09-07T01:10:03;17.20;99.90
18291;DHT22;9271;48.590;8.866;2023-09-07T01:12:30;17.20;99.90
18291;DHT22;9271;48.590;8.866;2023-09-07T01:14:58;17.10;99.90
18291;DHT22;9271;48.590;8.866;2023-09-07T01:17:26;17.10;99.90
18291;DHT22;9271;48.590;8.866;2023-09-07T01:19:54;17.10;99.90
18291;DHT22;9271;48.590;8.866;2023-09-07T01:22:26;17.10;99.90
18291;DHT22;9271;48.590;8.866;2023-09-07T01:24:53;17.10;99.90
18291;DHT22;9271;48.590;8.866;2023-09-07T01:27:20;17.00;99.90
18291;DHT22;9271;48.590;8.866;2023-09-07T01:29:47;17.00;99.90
18291;DHT22;9271;48.590;8.866;2023-09-07T01:32:13;17.00;99.90
18291;DHT22;9271;48.590;8.866;2023-09-07T01:34:40;16.90;99.90
18291;DHT22;9271;48.590;8.866;2023-09-07T01:37:07;16.90;99.90
18291;DHT22;9271;48.590;8.866;2023-09-07T01:39:35;16.80;99.90
18291;DHT22;9271;48.590;8.866;2023-09-07T01:42:02;16.70;99.90
18291;DHT22;9271;48.590;8.866;2023-09-07T01:44:29;16.70;99.90
18291;DHT22;9271;48.590;8.866;2023-09-07T01:46:56;16.60;99.90
18291;DHT22;9271;48.590;8.866;2023-09-07T01:49:23;16.70;99.90
18291;DHT22;9271;48.590;8.866;2023-09-07T01:51:51;16.70;99.90
18291;DHT22;9271;48.590;8.866;2023-09-07T01:54:18;16.70;99.90
18291;DHT22;9271;48.590;8.866;2023-09-07T01:56:46;16.60;99.90
18291;DHT22;9271;48.590;8.866;2023-09-07T01:59:12;16.60;99.90
18291;DHT22;9271;48.590;8.866;2023-09-07T02:01:39;16.60;99.90
18291;DHT22;9271;48.590;8.866;2023-09-07T02:04:06;16.70;99.90
18291;DHT22;9271;48.590;8.866;2023-09-07T02:06:33;16.60;99.90
18291;DHT22;9271;48.590;8.866;2023-09-07T02:09:00;16.70;99.90
18291;DHT22;9271;48.590;8.866;2023-09-07T02:11:27;16.70;99.90
18291;DHT22;9271;48.590;8.866;2023-09-07T02:13:55;16.60;99.90
18291;DHT22;9271;48.590;8.866;2023-09-07T02:16:22;16.60;99.90
18291;DHT22;9271;48.590;8.866;2023-09-07T02:18:50;16.50;99.90
18291;DHT22;9271;48.590;8.866;2023-09-07T02:21:16;16.50;99.90
18291;DHT22;9271;48.590;8.866;2023-09-07T02:23:43;16.50;99.90
18291;DHT22;9271;48.590;8.866;2023-09-07T02:26:10;16.50;99.90
18291;DHT22;9271;48.590;8.866;2023-09-07T02:28:36;16.50;99.90
18291;DHT22;9271;48.590;8.866;2023-09-07T02:31:05;16.40;99.90
18291;DHT22;9271;48.590;8.866;2023-09-07T02:33:32;16.40;99.90
18291;DHT22;9271;48.590;8.866;2023-09-07T02:35:59;16.40;99.90
18291;DHT22;9271;48.590;8.866;2023-09-07T02:38:25;16.40;99.90
18291;DHT22;9271;48.590;8.866;2023-09-07T02:40:52;16.30;99.90
18291;DHT22;9271;48.590;8.866;2023-09-07T02:43:20;16.30;99.90
18291;DHT22;9271;48.590;8.866;2023-09-07T02:45:48;16.30;99.90
18291;DHT22;9271;48.590;8.866;2023-09-07T02:48:16;16.30;99.90
18291;DHT22;9271;48.590;8.866;2023-09-07T02:50:43;16.20;99.90
18291;DHT22;9271;48.590;8.866;2023-09-07T02:53:14;16.20;99.90
18291;DHT22;9271;48.590;8.866;2023-09-07T02:55:40;16.20;99.90
18291;DHT22;9271;48.590;8.866;2023-09-07T02:58:07;16.20;99.90
18291;DHT22;9271;48.590;8.866;2023-09-07T03:00:34;16.20;99.90
18291;DHT22;9271;48.590;8.866;2023-09-07T03:03:01;16.10;99.90
18291;DHT22;9271;48.590;8.866;2023-09-07T03:05:29;16.00;99.90
18291;DHT22;9271;48.590;8.866;2023-09-07T03:07:56;16.00;99.90
18291;DHT22;9271;48.590;8.866;2023-09-07T03:10:22;16.00;99.90
18291;DHT22;9271;48.590;8.866;2023-09-07T03:12:49;16.10;99.90
18291;DHT22;9271;48.590;8.866;2023-09-07T03:15:17;16.00;99.90
18291;DHT22;9271;48.590;8.866;2023-09-07T03:17:43;15.90;99.90
18291;DHT22;9271;48.590;8.866;2023-09-07T03:20:10;16.00;99.90
18291;DHT22;9271;48.590;8.866;2023-09-07T03:22:41;16.00;99.90
18291;DHT22;9271;48.590;8.866;2023-09-07T03:25:08;16.10;99.90
18291;DHT22;9271;48.590;8.866;2023-09-07T03:27:35;16.00;99.90
18291;DHT22;9271;48.590;8.866;2023-09-07T03:30:02;16.00;99.90
18291;DHT22;9271;48.590;8.866;2023-09-07T03:32:29;15.90;99.90
18291;DHT22;9271;48.590;8.866;2023-09-07T03:34:58;15.90;99.90
18291;DHT22;9271;48.590;8.866;2023-09-07T03:37:24;15.80;99.90
18291;DHT22;9271;48.590;8.866;2023-09-07T03:39:52;15.70;99.90
18291;DHT22;9271;48.590;8.866;2023-09-07T03:42:19;15.80;99.90
18291;DHT22;9271;48.590;8.866;2023-09-07T03:44:46;15.80;99.90
18291;DHT22;9271;48.590;8.866;2023-09-07T03:47:14;15.70;99.90
18291;DHT22;9271;48.590;8.866;2023-09-07T03:49:40;15.70;99.90
18291;DHT22;9271;48.590;8.866;2023-09-07T03:52:07;15.70;99.90
18291;DHT22;9271;48.590;8.866;2023-09-07T03:54:34;15.70;99.90
18291;DHT22;9271;48.590;8.866;2023-09-07T03:57:02;15.70;99.90
18291;DHT22;9271;48.590;8.866;2023-09-07T03:59:29;15.50;99.90
18291;DHT22;9271;48.590;8.866;2023-09-07T04:01:56;15.40;99.90
18291;DHT22;9271;48.590;8.866;2023-09-07T04:04:23;15.50;99.90
18291;DHT22;9271;48.590;8.866;2023-09-07T04:06:49;15.50;99.90
18291;DHT22;9271;48.590;8.866;2023-09-07T04:09:16;15.50;99.90
18291;DHT22;9271;48.590;8.866;2023-09-07T04:11:42;15.60;99.90
18291;DHT22;9271;48.590;8.866;2023-09-07T04:14:10;15.50;99.90
18291;DHT22;9271;48.590;8.866;2023-09-07T04:16:37;15.60;99.90
18291;DHT22;9271;48.590;8.866;2023-09-07T04:19:04;15.60;99.90
18291;DHT22;9271;48.590;8.866;2023-09-07T04:21:30;15.60;99.90
18291;DHT22;9271;48.590;8.866;2023-09-07T04:23:57;15.70;99.90
18291;DHT22;9271;48.590;8.866;2023-09-07T04:26:24;15.50;99.90
18291;DHT22;9271;48.590;8.866;2023-09-07T04:28:51;15.50;99.90
18291;DHT22;9271;48.590;8.866;2023-09-07T04:31:18;15.30;99.90
18291;DHT22;9271;48.590;8.866;2023-09-07T04:33:46;15.20;99.90
18291;DHT22;9271;48.590;8.866;2023-09-07T04:36:14;14.90;99.90
18291;DHT22;9271;48.590;8.866;2023-09-07T04:38:41;15.00;99.90
18291;DHT22;9271;48.590;8.866;2023-09-07T04:41:08;15.20;99.90
18291;DHT22;9271;48.590;8.866;2023-09-07T04:43:35;15.30;99.90
18291;DHT22;9271;48.590;8.866;2023-09-07T04:46:01;15.20;99.90
18291;DHT22;9271;48.590;8.866;2023-09-07T04:48:29;15.30;99.90
18291;DHT22;9271;48.590;8.866;2023-09-07T04:50:59;15.20;99.90
18291;DHT22;9271;48.590;8.866;2023-09-07T04:53:27;15.30;99.90
18291;DHT22;9271;48.590;8.866;2023-09-07T04:55:54;15.20;99.90
18291;DHT22;9271;48.590;8.866;2023-09-07T04:58:21;15.10;99.90
18291;DHT22;9271;48.590;8.866;2023-09-07T05:00:47;15.10;99.90
18291;DHT22;9271;48.590;8.866;2023-09-07T05:03:14;15.00;99.90
18291;DHT22;9271;48.590;8.866;2023-09-07T05:05:42;15.00;99.90
18291;DHT22;9271;48.590;8.866;2023-09-07T05:08:10;14.90;99.90
18291;DHT22;9271;48.590;8.866;2023-09-07T05:10:38;15.10;99.90
18291;DHT22;9271;48.590;8.866;2023-09-07T05:13:05;15.40;99.90
18291;DHT22;9271;48.590;8.866;2023-09-07T05:15:32;15.40;99.90
18291;DHT22;9271;48.590;8.866;2023-09-07T05:17:58;15.30;99.90
18291;DHT22;9271;48.590;8.866;2023-09-07T05:20:25;15.10;99.90
18291;DHT22;9271;48.590;8.866;2023-09-07T05:22:53;15.20;99.90
18291;DHT22;9271;48.590;8.866;2023-09-07T05:25:22;15.20;99.90
18291;DHT22;9271;48.590;8.866;2023-09-07T05:27:48;15.20;99.90
18291;DHT22;9271;48.590;8.866;2023-09-07T05:30:15;15.30;99.90
18291;DHT22;9271;48.590;8.866;2023-09-07T05:32:42;15.50;99.90
18291;DHT22;9271;48.590;8.866;2023-09-07T05:35:08;15.50;99.90
18291;DHT22;9271;48.590;8.866;2023-09-07T05:37:37;15.70;99.90
18291;DHT22;9271;48.590;8.866;2023-09-07T05:40:07;16.00;99.90
18291;DHT22;9271;48.590;8.866;2023-09-07T05:42:34;16.10;99.90
18291;DHT22;9271;48.590;8.866;2023-09-07T05:45:01;16.20;99.90
18291;DHT22;9271;48.590;8.866;2023-09-07T05:47:29;16.30;99.90
18291;DHT22;9271;48.590;8.866;2023-09-07T05:49:55;16.40;99.90
18291;DHT22;9271;48.590;8.866;2023-09-07T05:52:22;16.40;99.90
18291;DHT22;9271;48.590;8.866;2023-09-07T05:54:48;16.30;99.90
18291;DHT22;9271;48.590;8.866;2023-09-07T05:57:16;16.50;99.90
18291;DHT22;9271;48.590;8.866;2023-09-07T05:59:43;16.60;99.90
18291;DHT22;9271;48.590;8.866;2023-09-07T06:02:10;16.90;99.90
18291;DHT22;9271;48.590;8.866;2023-09-07T06:04:36;17.20;99.90
18291;DHT22;9271;48.590;8.866;2023-09-07T06:07:03;17.40;99.90
18291;DHT22;9271;48.590;8.866;2023-09-07T06:09:30;17.50;99.90
18291;DHT22;9271;48.590;8.866;2023-09-07T06:11:57;17.60;99.90
18291;DHT22;9271;48.590;8.866;2023-09-07T06:14:25;17.80;99.90
18291;DHT22;9271;48.590;8.866;2023-09-07T06:16:51;18.00;99.90
18291;DHT22;9271;48.590;8.866;2023-09-07T06:19:18;17.90;99.90
18291;DHT22;9271;48.590;8.866;2023-09-07T06:21:45;18.10;99.90
18291;DHT22;9271;48.590;8.866;2023-09-07T06:24:12;18.20;99.90
18291;DHT22;9271;48.590;8.866;2023-09-07T06:26:40;18.40;99.90
18291;DHT22;9271;48.590;8.866;2023-09-07T06:29:06;18.20;99.90
18291;DHT22;9271;48.590;8.866;2023-09-07T06:31:34;18.60;99.90
18291;DHT22;9271;48.590;8.866;2023-09-07T06:34:01;18.80;99.90
18291;DHT22;9271;48.590;8.866;2023-09-07T06:36:29;19.30;99.90
18291;DHT22;9271;48.590;8.866;2023-09-07T06:38:56;20.20;99.90
18291;DHT22;9271;48.590;8.866;2023-09-07T06:41:22;21.10;98.60
18291;DHT22;9271;48.590;8.866;2023-09-07T06:43:49;21.90;96.90
18291;DHT22;9271;48.590;8.866;2023-09-07T06:46:16;23.10;95.20
18291;DHT22;9271;48.590;8.866;2023-09-07T06:48:44;24.20;93.20
18291;DHT22;9271;48.590;8.866;2023-09-07T06:51:10;25.10;91.50
18291;DHT22;9271;48.590;8.866;2023-09-07T06:53:37;26.10;89.50
18291;DHT22;9271;48.590;8.866;2023-09-07T06:56:04;26.10;86.80
18291;DHT22;9271;48.590;8.866;2023-09-07T06:58:32;26.60;84.90
18291;DHT22;9271;48.590;8.866;2023-09-07T07:01:00;27.60;81.30
18291;DHT22;9271;48.590;8.866;2023-09-07T07:03:28;28.30;77.40
18291;DHT22;9271;48.590;8.866;2023-09-07T07:05:56;28.70;76.00
18291;DHT22;9271;48.590;8.866;2023-09-07T07:08:23;29.90;70.30
18291;DHT22;9271;48.590;8.866;2023-09-07T07:10:50;30.20;68.40
18291;DHT22;9271;48.590;8.866;2023-09-07T07:13:17;31.10;64.80
18291;DHT22;9271;48.590;8.866;2023-09-07T07:15:43;32.20;60.90
18291;DHT22;9271;48.590;8.866;2023-09-07T07:18:10;32.80;58.20
18291;DHT22;9271;48.590;8.866;2023-09-07T07:20:37;33.90;54.30
18291;DHT22;9271;48.590;8.866;2023-09-07T07:23:05;34.60;51.40
18291;DHT22;9271;48.590;8.866;2023-09-07T07:25:32;35.50;49.50
18291;DHT22;9271;48.590;8.866;2023-09-07T07:27:59;35.60;47.60
18291;DHT22;9271;48.590;8.866;2023-09-07T07:30:27;35.70;46.00
18291;DHT22;9271;48.590;8.866;2023-09-07T07:32:54;36.90;44.70
18291;DHT22;9271;48.590;8.866;2023-09-07T07:35:21;37.60;42.00
18291;DHT22;9271;48.590;8.866;2023-09-07T07:37:49;37.30;41.90
18291;DHT22;9271;48.590;8.866;2023-09-07T07:40:18;38.10;41.90
18291;DHT22;9271;48.590;8.866;2023-09-07T07:42:46;39.00;38.20
18291;DHT22;9271;48.590;8.866;2023-09-07T07:45:13;39.40;37.00
18291;DHT22;9271;48.590;8.866;2023-09-07T07:47:40;39.70;36.10
18291;DHT22;9271;48.590;8.866;2023-09-07T07:50:07;40.10;35.90
18291;DHT22;9271;48.590;8.866;2023-09-07T07:52:34;40.70;35.40
18291;DHT22;9271;48.590;8.866;2023-09-07T07:55:01;40.00;35.20
18291;DHT22;9271;48.590;8.866;2023-09-07T07:57:29;39.90;35.00
18291;DHT22;9271;48.590;8.866;2023-09-07T07:59:56;39.80;35.00
18291;DHT22;9271;48.590;8.866;2023-09-07T08:02:23;40.40;34.40
18291;DHT22;9271;48.590;8.866;2023-09-07T08:04:49;40.20;34.20
18291;DHT22;9271;48.590;8.866;2023-09-07T08:07:16;40.00;35.10
18291;DHT22;9271;48.590;8.866;2023-09-07T08:09:43;38.30;36.00
18291;DHT22;9271;48.590;8.866;2023-09-07T08:12:09;38.40;36.30
18291;DHT22;9271;48.590;8.866;2023-09-07T08:14:37;38.60;36.90
18291;DHT22;9271;48.590;8.866;2023-09-07T08:17:04;39.00;36.40
18291;DHT22;9271;48.590;8.866;2023-09-07T08:19:31;39.30;35.20
18291;DHT22;9271;48.590;8.866;2023-09-07T08:21:58;39.50;36.40
18291;DHT22;9271;48.590;8.866;2023-09-07T08:24:24;40.10;35.00
18291;DHT22;9271;48.590;8.866;2023-09-07T08:26:51;40.50;33.70
18291;DHT22;9271;48.590;8.866;2023-09-07T08:29:20;40.60;33.40
18291;DHT22;9271;48.590;8.866;2023-09-07T08:31:50;40.50;34.10
18291;DHT22;9271;48.590;8.866;2023-09-07T08:34:17;41.50;34.00
18291;DHT22;9271;48.590;8.866;2023-09-07T08:36:45;41.40;32.80
18291;DHT22;9271;48.590;8.866;2023-09-07T08:39:12;40.70;33.20
18291;DHT22;9271;48.590;8.866;2023-09-07T08:41:38;41.20;32.70
18291;DHT22;9271;48.590;8.866;2023-09-07T08:44:08;41.40;32.80
18291;DHT22;9271;48.590;8.866;2023-09-07T08:46:36;41.90;32.50
18291;DHT22;9271;48.590;8.866;2023-09-07T08:49:04;42.30;30.90
18291;DHT22;9271;48.590;8.866;2023-09-07T08:51:31;42.60;30.70
18291;DHT22;9271;48.590;8.866;2023-09-07T08:53:58;42.40;31.00
18291;DHT22;9271;48.590;8.866;2023-09-07T08:56:25;43.10;31.90
18291;DHT22;9271;48.590;8.866;2023-09-07T08:58:52;43.90;29.80
18291;DHT22;9271;48.590;8.866;2023-09-07T09:01:19;44.40;30.40
18291;DHT22;9271;48.590;8.866;2023-09-07T09:03:48;44.60;28.50
18291;DHT22;9271;48.590;8.866;2023-09-07T09:06:17;43.70;30.20
18291;DHT22;9271;48.590;8.866;2023-09-07T09:08:45;42.80;29.90
18291;DHT22;9271;48.590;8.866;2023-09-07T09:11:12;41.40;32.30
18291;DHT22;9271;48.590;8.866;2023-09-07T09:13:40;41.40;31.70
18291;DHT22;9271;48.590;8.866;2023-09-07T09:16:07;42.60;32.10
18291;DHT22;9271;48.590;8.866;2023-09-07T09:18:33;43.50;32.20
18291;DHT22;9271;48.590;8.866;2023-09-07T09:21:00;44.00;29.50
18291;DHT22;9271;48.590;8.866;2023-09-07T09:23:32;44.20;29.50
18291;DHT22;9271;48.590;8.866;2023-09-07T09:25:59;44.70;29.50
18291;DHT22;9271;48.590;8.866;2023-09-07T09:28:30;44.30;28.70
18291;DHT22;9271;48.590;8.866;2023-09-07T09:30:58;44.00;29.00
18291;DHT22;9271;48.590;8.866;2023-09-07T09:33:25;42.50;31.00
18291;DHT22;9271;48.590;8.866;2023-09-07T09:35:53;43.70;32.00
18291;DHT22;9271;48.590;8.866;2023-09-07T09:38:20;44.70;30.10
18291;DHT22;9271;48.590;8.866;2023-09-07T09:40:48;45.50;30.00
18291;DHT22;9271;48.590;8.866;2023-09-07T09:43:15;45.60;28.80
18291;DHT22;9271;48.590;8.866;2023-09-07T09:45:42;46.20;27.70
18291;DHT22;9271;48.590;8.866;2023-09-07T09:48:09;46.00;28.20
18291;DHT22;9271;48.590;8.866;2023-09-07T09:50:36;46.00;27.50
18291;DHT22;9271;48.590;8.866;2023-09-07T09:53:05;45.70;27.50
18291;DHT22;9271;48.590;8.866;2023-09-07T09:55:33;45.90;28.80
18291;DHT22;9271;48.590;8.866;2023-09-07T09:58:02;46.10;28.20
18291;DHT22;9271;48.590;8.866;2023-09-07T10:00:30;43.90;28.30
18291;DHT22;9271;48.590;8.866;2023-09-07T10:03:04;44.10;29.70
18291;DHT22;9271;48.590;8.866;2023-09-07T10:05:32;45.70;29.70
18291;DHT22;9271;48.590;8.866;2023-09-07T10:08:07;45.80;27.50
18291;DHT22;9271;48.590;8.866;2023-09-07T10:10:35;46.30;28.10
18291;DHT22;9271;48.590;8.866;2023-09-07T10:13:04;46.40;28.30
18291;DHT22;9271;48.590;8.866;2023-09-07T10:15:32;47.00;27.40
18291;DHT22;9271;48.590;8.866;2023-09-07T10:18:05;47.70;26.50
18291;DHT22;9271;48.590;8.866;2023-09-07T10:20:50;47.40;26.00
18291;DHT22;9271;48.590;8.866;2023-09-07T10:23:18;47.20;26.70
18291;DHT22;9271;48.590;8.866;2023-09-07T10:25:47;47.80;26.90
18291;DHT22;9271;48.590;8.866;2023-09-07T10:28:20;47.00;26.90
18291;DHT22;9271;48.590;8.866;2023-09-07T10:31:01;47.00;26.90
18291;DHT22;9271;48.590;8.866;2023-09-07T10:33:29;47.40;26.80
18291;DHT22;9271;48.590;8.866;2023-09-07T10:35:55;47.20;27.20
18291;DHT22;9271;48.590;8.866;2023-09-07T10:38:22;47.40;27.10
18291;DHT22;9271;48.590;8.866;2023-09-07T10:40:54;48.70;25.70
18291;DHT22;9271;48.590;8.866;2023-09-07T10:43:24;48.40;27.10
18291;DHT22;9271;48.590;8.866;2023-09-07T10:45:51;47.20;26.80
18291;DHT22;9271;48.590;8.866;2023-09-07T10:48:17;47.40;26.90
18291;DHT22;9271;48.590;8.866;2023-09-07T10:50:45;47.00;27.40
18291;DHT22;9271;48.590;8.866;2023-09-07T10:53:12;47.40;27.30
18291;DHT22;9271;48.590;8.866;2023-09-07T10:55:39;46.70;27.10
18291;DHT22;9271;48.590;8.866;2023-09-07T10:58:08;45.80;28.40
18291;DHT22;9271;48.590;8.866;2023-09-07T11:00:37;45.00;28.20
18291;DHT22;9271;48.590;8.866;2023-09-07T11:03:07;45.30;28.40
18291;DHT22;9271;48.590;8.866;2023-09-07T11:05:35;45.70;28.10
18291;DHT22;9271;48.590;8.866;2023-09-07T11:08:04;46.00;28.70
18291;DHT22;9271;48.590;8.866;2023-09-07T11:10:33;46.30;28.40
18291;DHT22;9271;48.590;8.866;2023-09-07T11:13:02;46.60;28.10
18291;DHT22;9271;48.590;8.866;2023-09-07T11:15:29;48.00;27.30
18291;DHT22;9271;48.590;8.866;2023-09-07T11:17:57;47.20;27.70
18291;DHT22;9271;48.590;8.866;2023-09-07T11:20:24;47.20;28.50
18291;DHT22;9271;48.590;8.866;2023-09-07T11:22:51;47.30;27.50
18291;DHT22;9271;48.590;8.866;2023-09-07T11:25:18;47.90;28.00
18291;DHT22;9271;48.590;8.866;2023-09-07T11:27:45;48.50;27.70
18291;DHT22;9271;48.590;8.866;2023-09-07T11:30:12;48.90;26.50
18291;DHT22;9271;48.590;8.866;2023-09-07T11:32:39;48.40;27.60
18291;DHT22;9271;48.590;8.866;2023-09-07T11:35:09;47.60;28.00
18291;DHT22;9271;48.590;8.866;2023-09-07T11:37:36;46.90;27.60
18291;DHT22;9271;48.590;8.866;2023-09-07T11:40:03;47.60;28.20
18291;DHT22;9271;48.590;8.866;2023-09-07T11:42:36;48.30;27.90
18291;DHT22;9271;48.590;8.866;2023-09-07T11:45:04;49.20;26.00
18291;DHT22;9271;48.590;8.866;2023-09-07T11:47:31;49.90;26.70
18291;DHT22;9271;48.590;8.866;2023-09-07T11:50:00;49.00;27.20
18291;DHT22;9271;48.590;8.866;2023-09-07T11:52:27;49.10;26.00
18291;DHT22;9271;48.590;8.866;2023-09-07T11:54:54;48.90;27.00
18291;DHT22;9271;48.590;8.866;2023-09-07T11:57:21;48.80;26.30
18291;DHT22;9271;48.590;8.866;2023-09-07T11:59:49;48.50;27.20
18291;DHT22;9271;48.590;8.866;2023-09-07T12:02:15;48.80;27.90
18291;DHT22;9271;48.590;8.866;2023-09-07T12:04:43;48.90;27.40
18291;DHT22;9271;48.590;8.866;2023-09-07T12:07:10;49.20;26.40
18291;DHT22;9271;48.590;8.866;2023-09-07T12:09:38;49.20;26.70
18291;DHT22;9271;48.590;8.866;2023-09-07T12:12:05;46.90;28.30
18291;DHT22;9271;48.590;8.866;2023-09-07T12:14:32;47.20;28.60
18291;DHT22;9271;48.590;8.866;2023-09-07T12:16:58;47.80;28.20
18291;DHT22;9271;48.590;8.866;2023-09-07T12:19:25;48.10;27.90
18291;DHT22;9271;48.590;8.866;2023-09-07T12:21:52;47.50;27.90
18291;DHT22;9271;48.590;8.866;2023-09-07T12:24:19;47.70;28.30
18291;DHT22;9271;48.590;8.866;2023-09-07T12:26:46;48.50;27.90
18291;DHT22;9271;48.590;8.866;2023-09-07T12:29:13;49.10;27.00
18291;DHT22;9271;48.590;8.866;2023-09-07T12:31:40;48.70;27.30
18291;DHT22;9271;48.590;8.866;2023-09-07T12:34:06;48.50;27.30
18291;DHT22;9271;48.590;8.866;2023-09-07T12:36:34;48.30;27.60
18291;DHT22;9271;48.590;8.866;2023-09-07T12:39:01;48.40;27.90
18291;DHT22;9271;48.590;8.866;2023-09-07T12:41:29;48.40;27.80
18291;DHT22;9271;48.590;8.866;2023-09-07T12:43:58;48.30;27.90
18291;DHT22;9271;48.590;8.866;2023-09-07T12:46:25;48.90;27.20
18291;DHT22;9271;48.590;8.866;2023-09-07T12:48:51;48.80;27.20
18291;DHT22;9271;48.590;8.866;2023-09-07T12:51:18;48.90;27.40
18291;DHT22;9271;48.590;8.866;2023-09-07T12:53:44;49.70;27.00
18291;DHT22;9271;48.590;8.866;2023-09-07T12:56:11;49.30;26.90
18291;DHT22;9271;48.590;8.866;2023-09-07T12:58:39;49.10;27.00
18291;DHT22;9271;48.590;8.866;2023-09-07T13:01:06;49.30;26.40
18291;DHT22;9271;48.590;8.866;2023-09-07T13:03:35;49.70;26.40
18291;DHT22;9271;48.590;8.866;2023-09-07T13:06:02;48.50;27.30
18291;DHT22;9271;48.590;8.866;2023-09-07T13:08:29;48.70;27.00
18291;DHT22;9271;48.590;8.866;2023-09-07T13:10:56;47.00;28.20
18291;DHT22;9271;48.590;8.866;2023-09-07T13:13:22;46.90;28.20
18291;DHT22;9271;48.590;8.866;2023-09-07T13:15:51;47.20;28.30
18291;DHT22;9271;48.590;8.866;2023-09-07T13:18:19;46.60;28.50
18291;DHT22;9271;48.590;8.866;2023-09-07T13:20:45;46.00;29.00
18291;DHT22;9271;48.590;8.866;2023-09-07T13:23:13;46.30;28.70
18291;DHT22;9271;48.590;8.866;2023-09-07T13:25:40;46.60;28.30
18291;DHT22;9271;48.590;8.866;2023-09-07T13:28:07;45.50;29.20
18291;DHT22;9271;48.590;8.866;2023-09-07T13:30:33;45.30;28.80
18291;DHT22;9271;48.590;8.866;2023-09-07T13:33:00;45.60;28.90
18291;DHT22;9271;48.590;8.866;2023-09-07T13:35:28;46.20;28.60
18291;DHT22;9271;48.590;8.866;2023-09-07T13:37:55;46.80;28.10
18291;DHT22;9271;48.590;8.866;2023-09-07T13:40:21;47.20;28.20
18291;DHT22;9271;48.590;8.866;2023-09-07T13:42:49;47.10;28.30
18291;DHT22;9271;48.590;8.866;2023-09-07T13:45:16;47.40;27.80
18291;DHT22;9271;48.590;8.866;2023-09-07T13:47:43;47.40;28.60
18291;DHT22;9271;48.590;8.866;2023-09-07T13:50:10;47.00;28.10
18291;DHT22;9271;48.590;8.866;2023-09-07T13:52:38;46.80;28.40
18291;DHT22;9271;48.590;8.866;2023-09-07T13:55:05;45.80;28.60
18291;DHT22;9271;48.590;8.866;2023-09-07T13:57:32;45.10;29.50
18291;DHT22;9271;48.590;8.866;2023-09-07T14:00:00;45.40;29.60
18291;DHT22;9271;48.590;8.866;2023-09-07T14:02:27;45.90;29.10
18291;DHT22;9271;48.590;8.866;2023-09-07T14:04:53;46.20;28.60
18291;DHT22;9271;48.590;8.866;2023-09-07T14:07:20;46.20;28.50
18291;DHT22;9271;48.590;8.866;2023-09-07T14:09:48;46.10;28.80
18291;DHT22;9271;48.590;8.866;2023-09-07T14:12:15;45.50;28.70
18291;DHT22;9271;48.590;8.866;2023-09-07T14:14:41;44.90;29.70
18291;DHT22;9271;48.590;8.866;2023-09-07T14:17:08;44.50;29.90
18291;DHT22;9271;48.590;8.866;2023-09-07T14:19:34;42.90;31.50
18291;DHT22;9271;48.590;8.866;2023-09-07T14:22:01;42.90;32.40
18291;DHT22;9271;48.590;8.866;2023-09-07T14:24:28;43.70;31.20
18291;DHT22;9271;48.590;8.866;2023-09-07T14:26:56;44.00;30.90
18291;DHT22;9271;48.590;8.866;2023-09-07T14:29:22;43.80;30.70
18291;DHT22;9271;48.590;8.866;2023-09-07T14:31:49;43.20;31.30
18291;DHT22;9271;48.590;8.866;2023-09-07T14:34:16;43.30;30.00
18291;DHT22;9271;48.590;8.866;2023-09-07T14:36:42;43.10;30.20
18291;DHT22;9271;48.590;8.866;2023-09-07T14:39:09;42.80;30.50
18291;DHT22;9271;48.590;8.866;2023-09-07T14:41:35;43.10;30.50
18291;DHT22;9271;48.590;8.866;2023-09-07T14:44:04;43.20;30.50
18291;DHT22;9271;48.590;8.866;2023-09-07T14:46:30;42.90;29.90
18291;DHT22;9271;48.590;8.866;2023-09-07T14:48:57;41.90;30.10
18291;DHT22;9271;48.590;8.866;2023-09-07T14:51:26;41.40;31.90
18291;DHT22;9271;48.590;8.866;2023-09-07T14:53:53;41.70;31.20
18291;DHT22;9271;48.590;8.866;2023-09-07T14:56:20;41.20;32.00
18291;DHT22;9271;48.590;8.866;2023-09-07T14:58:46;41.10;32.00
18291;DHT22;9271;48.590;8.866;2023-09-07T15:01:14;41.50;31.90
18291;DHT22;9271;48.590;8.866;2023-09-07T15:03:41;41.90;31.70
18291;DHT22;9271;48.590;8.866;2023-09-07T15:06:07;42.20;30.70
18291;DHT22;9271;48.590;8.866;2023-09-07T15:08:37;41.60;30.50
18291;DHT22;9271;48.590;8.866;2023-09-07T15:11:03;40.80;31.30
18291;DHT22;9271;48.590;8.866;2023-09-07T15:13:30;40.20;32.40
18291;DHT22;9271;48.590;8.866;2023-09-07T15:15:57;40.50;31.90
18291;DHT22;9271;48.590;8.866;2023-09-07T15:18:25;40.40;32.50
18291;DHT22;9271;48.590;8.866;2023-09-07T15:20:51;40.20;33.30
18291;DHT22;9271;48.590;8.866;2023-09-07T15:23:19;39.90;32.80
18291;DHT22;9271;48.590;8.866;2023-09-07T15:25:45;39.40;33.40
18291;DHT22;9271;48.590;8.866;2023-09-07T15:28:12;38.80;33.90
18291;DHT22;9271;48.590;8.866;2023-09-07T15:30:39;39.30;34.60
18291;DHT22;9271;48.590;8.866;2023-09-07T15:33:05;38.60;35.00
18291;DHT22;9271;48.590;8.866;2023-09-07T15:35:33;37.50;36.00
18291;DHT22;9271;48.590;8.866;2023-09-07T15:38:00;38.00;35.70
18291;DHT22;9271;48.590;8.866;2023-09-07T15:40:27;38.10;35.00
18291;DHT22;9271;48.590;8.866;2023-09-07T15:42:55;37.70;35.00
18291;DHT22;9271;48.590;8.866;2023-09-07T15:45:22;38.00;36.40